sensor_id;sensor_type;location;lat;lon;timestamp;pressure;altitude;pressure_sealevel;temperature;humidity
33280;BME280;20403;43.114;12.434;2023-11-21T00:00:51;98541.22;;;13.65;100.00
33280;BME280;20403;43.114;12.434;2023-11-21T00:03:16;98547.78;;;13.63;100.00
33280;BME280;20403;43.114;12.434;2023-11-21T00:05:42;98539.69;;;13.70;100.00
33280;BME280;20403;43.114;12.434;2023-11-21T00:08:08;98538.91;;;13.74;100.00
33280;BME280;20403;43.114;12.434;2023-11-21T00:10:34;98529.47;;;13.68;100.00
33280;BME280;20403;43.114;12.434;2023-11-21T00:13:00;98525.25;;;13.67;100.00
33280;BME280;20403;43.114;12.434;2023-11-21T00:15:27;98532.59;;;13.65;100.00
33280;BME280;20403;43.114;12.434;2023-11-21T00:17:52;98538.38;;;13.67;100.00
33280;BME280;20403;43.114;12.434;2023-11-21T00:20:17;98538.38;;;13.67;100.00
33280;BME280;20403;43.114;12.434;2023-11-21T00:22:43;98532.09;;;13.68;100.00
33280;BME280;20403;43.114;12.434;2023-11-21T00:25:08;98529.75;;;13.72;100.00
33280;BME280;20403;43.114;12.434;2023-11-21T00:27:35;98526.09;;;13.78;100.00
33280;BME280;20403;43.114;12.434;2023-11-21T00:30:01;98525.31;;;13.77;100.00
33280;BME280;20403;43.114;12.434;2023-11-21T00:32:26;98520.34;;;13.81;100.00
33280;BME280;20403;43.114;12.434;2023-11-21T00:34:52;98508.28;;;13.80;100.00
33280;BME280;20403;43.114;12.434;2023-11-21T00:37:17;98510.41;;;13.83;100.00
33280;BME280;20403;43.114;12.434;2023-11-21T00:39:43;98505.16;;;13.88;100.00
33280;BME280;20403;43.114;12.434;2023-11-21T00:42:08;98504.09;;;13.84;100.00
33280;BME280;20403;43.114;12.434;2023-11-21T00:44:37;98504.13;;;13.89;100.00
33280;BME280;20403;43.114;12.434;2023-11-21T00:47:04;98500.47;;;13.95;100.00
33280;BME280;20403;43.114;12.434;2023-11-21T00:49:29;98505.44;;;13.92;100.00
33280;BME280;20403;43.114;12.434;2023-11-21T00:51:55;98497.84;;;13.95;100.00
33280;BME280;20403;43.114;12.434;2023-11-21T00:54:23;98501.53;;;13.99;100.00
33280;BME280;20403;43.114;12.434;2023-11-21T00:56:48;98494.72;;;13.98;100.00
33280;BME280;20403;43.114;12.434;2023-11-21T00:59:14;98491.03;;;13.99;100.00
33280;BME280;20403;43.114;12.434;2023-11-21T01:01:39;98482.94;;;14.01;100.00
33280;BME280;20403;43.114;12.434;2023-11-21T01:04:05;98485.03;;;14.04;100.00
33280;BME280;20403;43.114;12.434;2023-11-21T01:06:32;98477.94;;;14.04;100.00
33280;BME280;20403;43.114;12.434;2023-11-21T01:08:58;98484.78;;;14.11;100.00
33280;BME280;20403;43.114;12.434;2023-11-21T01:11:23;98480.06;;;14.07;100.00
33280;BME280;20403;43.114;12.434;2023-11-21T01:13:49;98473.75;;;14.03;100.00
33280;BME280;20403;43.114;12.434;2023-11-21T01:16:14;98475.06;;;14.01;100.00
33280;BME280;20403;43.114;12.434;2023-11-21T01:18:39;98468.22;;;14.00;100.00
33280;BME280;20403;43.114;12.434;2023-11-21T01:21:05;98459.59;;;14.04;100.00
33280;BME280;20403;43.114;12.434;2023-11-21T01:23:31;98460.91;;;14.07;100.00
33280;BME280;20403;43.114;12.434;2023-11-21T01:25:57;98460.66;;;14.03;100.00
33280;BME280;20403;43.114;12.434;2023-11-21T01:28:23;98463.28;;;14.08;100.00
33280;BME280;20403;43.114;12.434;2023-11-21T01:30:48;98465.38;;;14.12;100.00
33280;BME280;20403;43.114;12.434;2023-11-21T01:33:14;98452.78;;;14.14;100.00
33280;BME280;20403;43.114;12.434;2023-11-21T01:35:41;98445.72;;;14.24;100.00
33280;BME280;20403;43.114;12.434;2023-11-21T01:38:07;98452.53;;;14.25;100.00
33280;BME280;20403;43.114;12.434;2023-11-21T01:40:33;98449.13;;;14.30;100.00
33280;BME280;20403;43.114;12.434;2023-11-21T01:42:59;98453.88;;;14.38;100.00
33280;BME280;20403;43.114;12.434;2023-11-21T01:45:24;98446.25;;;14.52;100.00
33280;BME280;20403;43.114;12.434;2023-11-21T01:47:50;98440.00;;;14.63;100.00
33280;BME280;20403;43.114;12.434;2023-11-21T01:50:16;98452.03;;;14.69;100.00
33280;BME280;20403;43.114;12.434;2023-11-21T01:52:44;98444.69;;;14.71;100.00
33280;BME280;20403;43.114;12.434;2023-11-21T01:55:10;98435.75;;;14.78;100.00
33280;BME280;20403;43.114;12.434;2023-11-21T01:57:37;98427.13;;;14.72;100.00
33280;BME280;20403;43.114;12.434;2023-11-21T02:00:03;98438.13;;;14.79;100.00
33280;BME280;20403;43.114;12.434;2023-11-21T02:02:44;98437.59;;;14.77;100.00
33280;BME280;20403;43.114;12.434;2023-11-21T02:05:11;98434.47;;;14.75;100.00
33280;BME280;20403;43.114;12.434;2023-11-21T02:07:41;98447.03;;;14.78;100.00
33280;BME280;20403;43.114;12.434;2023-11-21T02:10:08;98442.09;;;14.77;100.00
33280;BME280;20403;43.114;12.434;2023-11-21T02:12:34;98439.69;;;14.85;100.00
33280;BME280;20403;43.114;12.434;2023-11-21T02:15:04;98442.06;;;14.87;100.00
33280;BME280;20403;43.114;12.434;2023-11-21T02:17:35;98437.06;;;14.85;100.00
33280;BME280;20403;43.114;12.434;2023-11-21T02:20:00;98429.19;;;14.90;100.00
33280;BME280;20403;43.114;12.434;2023-11-21T02:22:30;98434.16;;;14.92;100.00
33280;BME280;20403;43.114;12.434;2023-11-21T02:24:56;98429.69;;;14.92;100.00
33280;BME280;20403;43.114;12.434;2023-11-21T02:27:23;98420.00;;;14.88;100.00
33280;BME280;20403;43.114;12.434;2023-11-21T02:29:49;98416.84;;;14.91;100.00
33280;BME280;20403;43.114;12.434;2023-11-21T02:32:14;98410.28;;;14.88;100.00
33280;BME280;20403;43.114;12.434;2023-11-21T02:34:42;98409.50;;;14.93;100.00
33280;BME280;20403;43.114;12.434;2023-11-21T02:37:08;98411.88;;;14.84;100.00
33280;BME280;20403;43.114;12.434;2023-11-21T02:39:34;98412.66;;;14.85;100.00
33280;BME280;20403;43.114;12.434;2023-11-21T02:41:59;98402.41;;;14.83;100.00
33280;BME280;20403;43.114;12.434;2023-11-21T02:44:25;98401.38;;;14.74;100.00
33280;BME280;20403;43.114;12.434;2023-11-21T02:46:51;98402.97;;;14.75;100.00
33280;BME280;20403;43.114;12.434;2023-11-21T02:49:16;98400.63;;;14.68;100.00
33280;BME280;20403;43.114;12.434;2023-11-21T02:51:42;98409.56;;;14.67;100.00
33280;BME280;20403;43.114;12.434;2023-11-21T02:54:08;98396.16;;;14.64;100.00
33280;BME280;20403;43.114;12.434;2023-11-21T02:56:33;98410.34;;;14.63;100.00
33280;BME280;20403;43.114;12.434;2023-11-21T02:59:00;98410.59;;;14.61;100.00
33280;BME280;20403;43.114;12.434;2023-11-21T03:01:25;98418.47;;;14.61;100.00
33280;BME280;20403;43.114;12.434;2023-11-21T03:03:51;98407.97;;;14.66;100.00
33280;BME280;20403;43.114;12.434;2023-11-21T03:06:19;98405.09;;;14.68;100.00
33280;BME280;20403;43.114;12.434;2023-11-21T03:08:45;98406.94;;;14.67;100.00
33280;BME280;20403;43.114;12.434;2023-11-21T03:11:11;98396.44;;;14.67;100.00
33280;BME280;20403;43.114;12.434;2023-11-21T03:13:41;98399.31;;;14.66;100.00
33280;BME280;20403;43.114;12.434;2023-11-21T03:16:10;98403.00;;;14.65;100.00
33280;BME280;20403;43.114;12.434;2023-11-21T03:18:37;98401.16;;;14.60;100.00
33280;BME280;20403;43.114;12.434;2023-11-21T03:21:04;98394.59;;;14.63;100.00
33280;BME280;20403;43.114;12.434;2023-11-21T03:23:30;98390.13;;;14.68;100.00
33280;BME280;20403;43.114;12.434;2023-11-21T03:25:55;98389.88;;;14.70;100.00
33280;BME280;20403;43.114;12.434;2023-11-21T03:28:20;98384.34;;;14.66;100.00
33280;BME280;20403;43.114;12.434;2023-11-21T03:30:46;98385.69;;;14.59;100.00
33280;BME280;20403;43.114;12.434;2023-11-21T03:33:11;98388.06;;;14.60;100.00
33280;BME280;20403;43.114;12.434;2023-11-21T03:35:37;98382.00;;;14.55;100.00
33280;BME280;20403;43.114;12.434;2023-11-21T03:38:03;98382.22;;;14.53;100.00
33280;BME280;20403;43.114;12.434;2023-11-21T03:40:28;98384.06;;;14.53;100.00
33280;BME280;20403;43.114;12.434;2023-11-21T03:42:54;98388.56;;;14.47;100.00
33280;BME280;20403;43.114;12.434;2023-11-21T03:45:19;98374.13;;;14.39;100.00
33280;BME280;20403;43.114;12.434;2023-11-21T03:47:44;98380.19;;;14.40;100.00
33280;BME280;20403;43.114;12.434;2023-11-21T03:50:10;98380.44;;;14.38;100.00
33280;BME280;20403;43.114;12.434;2023-11-21T03:52:35;98370.69;;;14.44;100.00
33280;BME280;20403;43.114;12.434;2023-11-21T03:55:02;98364.16;;;14.36;100.00
33280;BME280;20403;43.114;12.434;2023-11-21T03:57:27;98363.66;;;14.29;100.00
33280;BME280;20403;43.114;12.434;2023-11-21T03:59:53;98366.78;;;14.31;100.00
33280;BME280;20403;43.114;12.434;2023-11-21T04:02:19;98374.94;;;14.24;100.00
33280;BME280;20403;43.114;12.434;2023-11-21T04:04:44;98375.72;;;14.25;100.00
33280;BME280;20403;43.114;12.434;2023-11-21T04:07:10;98365.47;;;14.18;100.00
33280;BME280;20403;43.114;12.434;2023-11-21T04:09:36;98358.16;;;14.15;100.00
33280;BME280;20403;43.114;12.434;2023-11-21T04:12:02;98358.41;;;14.14;100.00
33280;BME280;20403;43.114;12.434;2023-11-21T04:14:27;98356.84;;;14.13;100.00
33280;BME280;20403;43.114;12.434;2023-11-21T04:16:53;98353.94;;;14.04;100.00
33280;BME280;20403;43.114;12.434;2023-11-21T04:19:19;98358.16;;;14.05;100.00
33280;BME280;20403;43.114;12.434;2023-11-21T04:21:44;98354.19;;;14.02;100.00
33280;BME280;20403;43.114;12.434;2023-11-21T04:24:10;98351.59;;;13.97;100.00
33280;BME280;20403;43.114;12.434;2023-11-21T04:26:36;98345.03;;;14.00;100.00
33280;BME280;20403;43.114;12.434;2023-11-21T04:29:01;98341.09;;;13.97;100.00
33280;BME280;20403;43.114;12.434;2023-11-21T04:31:27;98336.94;;;13.91;100.00
33280;BME280;20403;43.114;12.434;2023-11-21T04:33:52;98341.38;;;13.80;100.00
33280;BME280;20403;43.114;12.434;2023-11-21T04:36:18;98353.69;;;13.85;100.00
33280;BME280;20403;43.114;12.434;2023-11-21T04:38:45;98355.25;;;13.86;100.00
33280;BME280;20403;43.114;12.434;2023-11-21T04:41:10;98349.75;;;13.87;100.00
33280;BME280;20403;43.114;12.434;2023-11-21T04:43:37;98352.13;;;13.94;100.00
33280;BME280;20403;43.114;12.434;2023-11-21T04:46:02;98350.81;;;13.92;100.00
33280;BME280;20403;43.114;12.434;2023-11-21T04:48:28;98352.13;;;13.99;100.00
33280;BME280;20403;43.114;12.434;2023-11-21T04:50:53;98355.28;;;13.91;100.00
33280;BME280;20403;43.114;12.434;2023-11-21T04:53:19;98352.38;;;13.93;100.00
33280;BME280;20403;43.114;12.434;2023-11-21T04:55:45;98363.13;;;13.91;100.00
33280;BME280;20403;43.114;12.434;2023-11-21T04:58:11;98359.22;;;13.94;100.00
33280;BME280;20403;43.114;12.434;2023-11-21T05:00:37;98366.25;;;13.93;100.00
33280;BME280;20403;43.114;12.434;2023-11-21T05:03:03;98357.38;;;13.94;100.00
33280;BME280;20403;43.114;12.434;2023-11-21T05:05:29;98358.94;;;13.95;100.00
33280;BME280;20403;43.114;12.434;2023-11-21T05:07:55;98358.94;;;14.00;100.00
33280;BME280;20403;43.114;12.434;2023-11-21T05:10:20;98368.91;;;13.98;100.00
33280;BME280;20403;43.114;12.434;2023-11-21T05:12:47;98359.47;;;13.92;100.00
33280;BME280;20403;43.114;12.434;2023-11-21T05:15:16;98363.66;;;13.98;100.00
33280;BME280;20403;43.114;12.434;2023-11-21T05:17:42;98355.78;;;13.93;100.00
33280;BME280;20403;43.114;12.434;2023-11-21T05:20:10;98357.63;;;13.93;100.00
33280;BME280;20403;43.114;12.434;2023-11-21T05:22:36;98354.50;;;13.96;100.00
33280;BME280;20403;43.114;12.434;2023-11-21T05:25:02;98344.78;;;13.96;100.00
33280;BME280;20403;43.114;12.434;2023-11-21T05:27:29;98357.13;;;13.96;100.00
33280;BME280;20403;43.114;12.434;2023-11-21T05:29:56;98353.72;;;14.00;100.00
33280;BME280;20403;43.114;12.434;2023-11-21T05:32:22;98352.13;;;13.94;100.00
33280;BME280;20403;43.114;12.434;2023-11-21T05:34:48;98347.66;;;13.95;100.00
33280;BME280;20403;43.114;12.434;2023-11-21T05:37:14;98343.47;;;13.99;100.00
33280;BME280;20403;43.114;12.434;2023-11-21T05:39:39;98337.97;;;13.95;100.00
33280;BME280;20403;43.114;12.434;2023-11-21T05:42:05;98346.34;;;13.92;100.00
33280;BME280;20403;43.114;12.434;2023-11-21T05:44:31;98339.81;;;13.90;100.00
33280;BME280;20403;43.114;12.434;2023-11-21T05:46:57;98343.47;;;13.88;100.00
33280;BME280;20403;43.114;12.434;2023-11-21T05:49:24;98345.56;;;13.86;100.00
33280;BME280;20403;43.114;12.434;2023-11-21T05:51:53;98339.56;;;13.91;100.00
33280;BME280;20403;43.114;12.434;2023-11-21T05:54:19;98349.75;;;13.82;100.00
33280;BME280;20403;43.114;12.434;2023-11-21T05:56:45;98342.69;;;13.83;100.00
33280;BME280;20403;43.114;12.434;2023-11-21T05:59:10;98344.53;;;13.82;100.00
33280;BME280;20403;43.114;12.434;2023-11-21T06:01:35;98346.34;;;13.87;100.00
33280;BME280;20403;43.114;12.434;2023-11-21T06:04:04;98343.19;;;13.90;100.00
33280;BME280;20403;43.114;12.434;2023-11-21T06:06:29;98336.13;;;13.85;100.00
33280;BME280;20403;43.114;12.434;2023-11-21T06:08:56;98339.03;;;13.89;100.00
33280;BME280;20403;43.114;12.434;2023-11-21T06:11:21;98330.91;;;13.96;100.00
33280;BME280;20403;43.114;12.434;2023-11-21T06:13:47;98329.56;;;13.93;100.00
33280;BME280;20403;43.114;12.434;2023-11-21T06:16:13;98332.19;;;13.88;100.00
33280;BME280;20403;43.114;12.434;2023-11-21T06:18:41;98336.94;;;13.96;100.00
33280;BME280;20403;43.114;12.434;2023-11-21T06:21:09;98336.66;;;13.87;100.00
33280;BME280;20403;43.114;12.434;2023-11-21T06:23:35;98329.56;;;13.88;100.00
33280;BME280;20403;43.114;12.434;2023-11-21T06:26:00;98329.31;;;13.90;100.00
33280;BME280;20403;43.114;12.434;2023-11-21T06:28:26;98323.28;;;13.89;100.00
33280;BME280;20403;43.114;12.434;2023-11-21T06:30:51;98324.06;;;13.95;100.00
33280;BME280;20403;43.114;12.434;2023-11-21T06:33:18;98332.47;;;13.86;100.00
33280;BME280;20403;43.114;12.434;2023-11-21T06:35:44;98327.72;;;13.88;100.00
33280;BME280;20403;43.114;12.434;2023-11-21T06:38:10;98335.59;;;13.88;100.00
33280;BME280;20403;43.114;12.434;2023-11-21T06:40:35;98334.03;;;13.93;100.00
33280;BME280;20403;43.114;12.434;2023-11-21T06:43:01;98325.13;;;13.99;100.00
33280;BME280;20403;43.114;12.434;2023-11-21T06:45:26;98323.28;;;13.94;100.00
33280;BME280;20403;43.114;12.434;2023-11-21T06:47:52;98326.69;;;13.95;100.00
33280;BME280;20403;43.114;12.434;2023-11-21T06:50:17;98331.69;;;13.96;100.00
33280;BME280;20403;43.114;12.434;2023-11-21T06:52:43;98326.16;;;13.98;100.00
33280;BME280;20403;43.114;12.434;2023-11-21T06:55:08;98321.72;;;13.98;100.00
33280;BME280;20403;43.114;12.434;2023-11-21T06:57:35;98303.63;;;13.97;100.00
33280;BME280;20403;43.114;12.434;2023-11-21T07:00:00;98313.56;;;14.00;100.00
33280;BME280;20403;43.114;12.434;2023-11-21T07:02:26;98306.25;;;13.97;100.00
33280;BME280;20403;43.114;12.434;2023-11-21T07:04:51;98304.94;;;13.99;100.00
33280;BME280;20403;43.114;12.434;2023-11-21T07:07:18;98300.47;;;14.00;100.00
33280;BME280;20403;43.114;12.434;2023-11-21T07:09:44;98298.38;;;14.02;100.00
33280;BME280;20403;43.114;12.434;2023-11-21T07:12:10;98292.88;;;14.03;100.00
33280;BME280;20403;43.114;12.434;2023-11-21T07:14:36;98294.19;;;14.06;100.00
33280;BME280;20403;43.114;12.434;2023-11-21T07:17:04;98288.41;;;14.09;100.00
33280;BME280;20403;43.114;12.434;2023-11-21T07:19:29;98293.13;;;14.07;100.00
33280;BME280;20403;43.114;12.434;2023-11-21T07:21:55;98293.94;;;14.07;100.00
33280;BME280;20403;43.114;12.434;2023-11-21T07:24:21;98292.88;;;14.08;100.00
33280;BME280;20403;43.114;12.434;2023-11-21T07:26:48;98290.53;;;14.12;100.00
33280;BME280;20403;43.114;12.434;2023-11-21T07:29:14;98283.41;;;14.18;100.00
33280;BME280;20403;43.114;12.434;2023-11-21T07:31:39;98278.44;;;14.16;100.00
33280;BME280;20403;43.114;12.434;2023-11-21T07:34:06;98291.81;;;14.20;100.00
33280;BME280;20403;43.114;12.434;2023-11-21T07:36:33;98285.50;;;14.21;100.00
33280;BME280;20403;43.114;12.434;2023-11-21T07:38:58;98281.59;;;14.23;100.00
33280;BME280;20403;43.114;12.434;2023-11-21T07:41:24;98285.50;;;14.26;100.00
33280;BME280;20403;43.114;12.434;2023-11-21T07:43:49;98281.81;;;14.27;100.00
33280;BME280;20403;43.114;12.434;2023-11-21T07:46:15;98283.16;;;14.24;100.00
33280;BME280;20403;43.114;12.434;2023-11-21T07:48:42;98281.31;;;14.25;100.00
33280;BME280;20403;43.114;12.434;2023-11-21T07:51:08;98277.13;;;14.24;100.00
33280;BME280;20403;43.114;12.434;2023-11-21T07:53:35;98280.25;;;14.21;100.00
33280;BME280;20403;43.114;12.434;2023-11-21T07:56:08;98282.88;;;14.21;100.00
33280;BME280;20403;43.114;12.434;2023-11-21T07:58:34;98283.41;;;14.28;100.00
33280;BME280;20403;43.114;12.434;2023-11-21T08:01:01;98279.47;;;14.36;100.00
33280;BME280;20403;43.114;12.434;2023-11-21T08:03:26;98279.72;;;14.34;100.00
33280;BME280;20403;43.114;12.434;2023-11-21T08:05:53;98280.22;;;14.36;100.00
33280;BME280;20403;43.114;12.434;2023-11-21T08:08:19;98277.09;;;14.44;100.00
33280;BME280;20403;43.114;12.434;2023-11-21T08:10:47;98271.31;;;14.42;100.00
33280;BME280;20403;43.114;12.434;2023-11-21T08:13:13;98275.25;;;14.45;100.00
33280;BME280;20403;43.114;12.434;2023-11-21T08:15:41;98261.56;;;14.48;100.00
33280;BME280;20403;43.114;12.434;2023-11-21T08:18:10;98259.72;;;14.48;100.00
33280;BME280;20403;43.114;12.434;2023-11-21T08:20:35;98255.00;;;14.50;100.00
33280;BME280;20403;43.114;12.434;2023-11-21T08:23:01;98263.94;;;14.55;100.00
33280;BME280;20403;43.114;12.434;2023-11-21T08:25:27;98259.47;;;14.60;100.00
33280;BME280;20403;43.114;12.434;2023-11-21T08:27:53;98252.91;;;14.63;100.00
33280;BME280;20403;43.114;12.434;2023-11-21T08:30:19;98246.63;;;14.59;100.00
33280;BME280;20403;43.114;12.434;2023-11-21T08:32:46;98240.84;;;14.62;100.00
33280;BME280;20403;43.114;12.434;2023-11-21T08:35:11;98246.34;;;14.65;100.00
33280;BME280;20403;43.114;12.434;2023-11-21T08:37:37;98245.28;;;14.66;100.00
33280;BME280;20403;43.114;12.434;2023-11-21T08:40:05;98241.88;;;14.66;100.00
33280;BME280;20403;43.114;12.434;2023-11-21T08:42:34;98236.84;;;14.75;100.00
33280;BME280;20403;43.114;12.434;2023-11-21T08:45:00;98229.72;;;14.80;100.00
33280;BME280;20403;43.114;12.434;2023-11-21T08:47:25;98225.25;;;14.86;100.00
33280;BME280;20403;43.114;12.434;2023-11-21T08:49:51;98226.25;;;14.90;100.00
33280;BME280;20403;43.114;12.434;2023-11-21T08:52:21;98223.88;;;14.94;100.00
33280;BME280;20403;43.114;12.434;2023-11-21T08:54:49;98230.13;;;15.03;100.00
33280;BME280;20403;43.114;12.434;2023-11-21T08:57:22;98225.66;;;15.03;100.00
33280;BME280;20403;43.114;12.434;2023-11-21T08:59:47;98221.72;;;15.06;100.00
33280;BME280;20403;43.114;12.434;2023-11-21T09:02:12;98225.09;;;15.11;100.00
33280;BME280;20403;43.114;12.434;2023-11-21T09:04:38;98232.16;;;15.16;100.00
33280;BME280;20403;43.114;12.434;2023-11-21T09:07:03;98227.44;;;15.18;100.00
33280;BME280;20403;43.114;12.434;2023-11-21T09:09:29;98234.81;;;15.11;100.00
33280;BME280;20403;43.114;12.434;2023-11-21T09:11:55;98235.09;;;15.09;100.00
33280;BME280;20403;43.114;12.434;2023-11-21T09:14:20;98232.72;;;15.08;100.00
33280;BME280;20403;43.114;12.434;2023-11-21T09:16:46;98238.25;;;15.06;100.00
33280;BME280;20403;43.114;12.434;2023-11-21T09:19:12;98231.44;;;15.05;100.00
33280;BME280;20403;43.114;12.434;2023-11-21T09:21:39;98235.09;;;15.09;100.00
33280;BME280;20403;43.114;12.434;2023-11-21T09:24:05;98230.06;;;15.13;100.00
33280;BME280;20403;43.114;12.434;2023-11-21T09:26:30;98224.00;;;15.18;100.00
33280;BME280;20403;43.114;12.434;2023-11-21T09:28:56;98235.78;;;15.20;100.00
33280;BME280;20403;43.114;12.434;2023-11-21T09:31:22;98228.44;;;15.22;100.00
33280;BME280;20403;43.114;12.434;2023-11-21T09:33:49;98221.84;;;15.25;100.00
33280;BME280;20403;43.114;12.434;2023-11-21T09:36:14;98224.72;;;15.28;100.00
33280;BME280;20403;43.114;12.434;2023-11-21T09:38:40;98224.16;;;15.31;100.00
33280;BME280;20403;43.114;12.434;2023-11-21T09:41:15;98212.06;;;15.36;100.00
33280;BME280;20403;43.114;12.434;2023-11-21T09:43:44;98214.88;;;15.44;100.00
33280;BME280;20403;43.114;12.434;2023-11-21T09:46:12;98206.41;;;15.52;100.00
33280;BME280;20403;43.114;12.434;2023-11-21T09:48:47;98204.00;;;15.56;100.00
33280;BME280;20403;43.114;12.434;2023-11-21T09:51:16;98194.00;;;15.58;100.00
33280;BME280;20403;43.114;12.434;2023-11-21T09:53:47;98190.88;;;15.56;100.00
33280;BME280;20403;43.114;12.434;2023-11-21T09:56:15;98187.47;;;15.55;100.00
33280;BME280;20403;43.114;12.434;2023-11-21T09:58:44;98184.53;;;15.57;100.00
33280;BME280;20403;43.114;12.434;2023-11-21T10:01:11;98178.31;;;15.53;100.00
33280;BME280;20403;43.114;12.434;2023-11-21T10:03:37;98168.06;;;15.51;100.00
33280;BME280;20403;43.114;12.434;2023-11-21T10:06:04;98171.97;;;15.54;100.00
33280;BME280;20403;43.114;12.434;2023-11-21T10:08:32;98164.97;;;15.44;100.00
33280;BME280;20403;43.114;12.434;2023-11-21T10:10:58;98164.47;;;15.42;100.00
33280;BME280;20403;43.114;12.434;2023-11-21T10:13:26;98153.38;;;15.45;100.00
33280;BME280;20403;43.114;12.434;2023-11-21T10:15:55;98155.75;;;15.47;100.00
33280;BME280;20403;43.114;12.434;2023-11-21T10:18:25;98154.16;;;15.51;100.00
33280;BME280;20403;43.114;12.434;2023-11-21T10:20:52;98136.25;;;15.53;100.00
33280;BME280;20403;43.114;12.434;2023-11-21T10:23:22;98131.50;;;15.55;100.00
33280;BME280;20403;43.114;12.434;2023-11-21T10:25:47;98130.91;;;15.63;100.00
33280;BME280;20403;43.114;12.434;2023-11-21T10:28:14;98123.72;;;15.74;100.00
33280;BME280;20403;43.114;12.434;2023-11-21T10:30:40;98119.41;;;15.83;100.00
33280;BME280;20403;43.114;12.434;2023-11-21T10:33:07;98117.50;;;15.89;100.00
33280;BME280;20403;43.114;12.434;2023-11-21T10:35:46;98114.97;;;16.03;100.00
33280;BME280;20403;43.114;12.434;2023-11-21T10:38:14;98113.22;;;16.17;100.00
33280;BME280;20403;43.114;12.434;2023-11-21T10:40:43;98104.16;;;16.28;100.00
33280;BME280;20403;43.114;12.434;2023-11-21T10:43:10;98097.97;;;16.38;100.00
33280;BME280;20403;43.114;12.434;2023-11-21T10:45:39;98094.19;;;16.44;100.00
33280;BME280;20403;43.114;12.434;2023-11-21T10:48:09;98086.03;;;16.46;100.00
33280;BME280;20403;43.114;12.434;2023-11-21T10:50:36;98082.47;;;16.55;100.00
33280;BME280;20403;43.114;12.434;2023-11-21T10:53:03;98077.19;;;16.55;100.00
33280;BME280;20403;43.114;12.434;2023-11-21T10:55:29;98060.13;;;16.53;100.00
33280;BME280;20403;43.114;12.434;2023-11-21T10:57:59;98057.00;;;16.51;100.00
33280;BME280;20403;43.114;12.434;2023-11-21T11:00:26;98059.06;;;16.54;100.00
33280;BME280;20403;43.114;12.434;2023-11-21T11:02:52;98054.53;;;16.59;100.00
33280;BME280;20403;43.114;12.434;2023-11-21T11:05:23;98055.44;;;16.69;100.00
33280;BME280;20403;43.114;12.434;2023-11-21T11:07:59;98050.84;;;16.74;100.00
33280;BME280;20403;43.114;12.434;2023-11-21T11:10:27;98052.50;;;16.89;100.00
33280;BME280;20403;43.114;12.434;2023-11-21T11:12:55;98050.88;;;17.07;100.00
33280;BME280;20403;43.114;12.434;2023-11-21T11:15:21;98047.69;;;17.24;100.00
33280;BME280;20403;43.114;12.434;2023-11-21T11:17:48;98048.22;;;17.40;100.00
33280;BME280;20403;43.114;12.434;2023-11-21T11:20:15;98045.38;;;17.36;100.00
33280;BME280;20403;43.114;12.434;2023-11-21T11:23:08;98038.34;;;17.32;100.00
33280;BME280;20403;43.114;12.434;2023-11-21T11:25:45;98047.78;;;17.33;100.00
33280;BME280;20403;43.114;12.434;2023-11-21T11:37:07;98027.97;;;17.08;100.00
33280;BME280;20403;43.114;12.434;2023-11-21T11:39:38;98030.75;;;16.97;100.00
33280;BME280;20403;43.114;12.434;2023-11-21T11:42:13;98026.28;;;16.98;100.00
33280;BME280;20403;43.114;12.434;2023-11-21T11:47:29;98028.97;;;16.79;100.00
33280;BME280;20403;43.114;12.434;2023-11-21T11:50:09;98032.44;;;16.74;100.00
33280;BME280;20403;43.114;12.434;2023-11-21T11:52:51;98025.41;;;16.70;100.00
33280;BME280;20403;43.114;12.434;2023-11-21T11:55:19;98022.00;;;16.69;100.00
33280;BME280;20403;43.114;12.434;2023-11-21T11:57:49;98023.75;;;16.74;100.00
33280;BME280;20403;43.114;12.434;2023-11-21T12:00:19;98019.25;;;16.74;100.00
33280;BME280;20403;43.114;12.434;2023-11-21T12:02:50;98012.88;;;16.80;100.00
33280;BME280;20403;43.114;12.434;2023-11-21T12:05:26;98007.53;;;16.86;100.00
33280;BME280;20403;43.114;12.434;2023-11-21T12:07:56;98003.44;;;16.93;100.00
33280;BME280;20403;43.114;12.434;2023-11-21T12:10:24;97998.00;;;17.04;100.00
33280;BME280;20403;43.114;12.434;2023-11-21T12:12:51;97990.22;;;16.98;100.00
33280;BME280;20403;43.114;12.434;2023-11-21T12:15:18;97983.94;;;16.94;100.00
33280;BME280;20403;43.114;12.434;2023-11-21T12:17:45;97983.84;;;16.99;100.00
33280;BME280;20403;43.114;12.434;2023-11-21T12:20:12;97979.25;;;17.05;100.00
33280;BME280;20403;43.114;12.434;2023-11-21T12:22:47;97970.41;;;17.01;100.00
33280;BME280;20403;43.114;12.434;2023-11-21T12:25:14;97973.03;;;17.01;100.00
33280;BME280;20403;43.114;12.434;2023-11-21T12:27:42;97969.22;;;16.93;100.00
33280;BME280;20403;43.114;12.434;2023-11-21T12:30:09;97973.50;;;16.89;100.00
33280;BME280;20403;43.114;12.434;2023-11-21T12:32:39;97981.69;;;16.88;100.00
33280;BME280;20403;43.114;12.434;2023-11-21T12:35:07;97967.75;;;16.87;100.00
33280;BME280;20403;43.114;12.434;2023-11-21T12:37:33;97969.59;;;16.87;100.00
33280;BME280;20403;43.114;12.434;2023-11-21T12:39:58;97974.66;;;16.83;100.00
33280;BME280;20403;43.114;12.434;2023-11-21T12:42:24;97961.94;;;16.71;100.00
33280;BME280;20403;43.114;12.434;2023-11-21T12:45:07;97958.31;;;16.67;100.00
33280;BME280;20403;43.114;12.434;2023-11-21T12:47:35;97959.41;;;16.66;100.00
33280;BME280;20403;43.114;12.434;2023-11-21T12:50:02;97947.59;;;16.64;100.00